Portada
METAR-TAF:

METAR-TAF

Aeroports :

Manchester, Nova Hampshire, Estats Units d'Amèrica

latitud: 42-55-45N, longitud: 071-26-09W, altitud: 71 m

Observació

L'informe es va fer fa 28 minuts, a les 15:53 UTC
Vent 9 kt del Nord
Temperatura 6°C
Humitat 56%
Pressió 1020 hPa
Visibilitat: 16.1 km
Cel clar

METAR: KMHT 211553Z 36009KT 10SM CLR 06/M02 A3011 RMK AO2 SLP214 T00611017

Hora: 11:21 (16:21 UTC)

Pronòstic

L'informe es va fer fa 5 hores i 1 minuts, a les 11:20 UTC
Pronòstic vàlid del 21 a les 12 UTC al 22 a les 12 UTC
Vent 7 kt del Nord/Nord-Oest
Visibilitat: 10 km
Núvols disperses a una alçada de 4000 ft
A partir de les 22 a les 0300 UTC
Vent kt del Nord
Visibilitat: 10 km
Cel ennuvolat a una alçada de 8000 ft

TAF: KMHT 211120Z 2112/2212 33007KT P6SM SCT040 FM220300 00000KT P6SM BKN080

Observacions i pronòstics meteorològics de més de 4000 aeroports (METAR i TAF).

Les estacions disponibles són els punts grocs i vermells al mapa.

Posi el ratolí al punt desitjat per veure el nom de l'estació.

Feu clic per veure les observacions i els pronòstics meteorològics.

Per canviar el mapa: feu clic els botons verds amb una creu de color negre per apropar; al botó verd amb un guió per allunyar la imatge; o en les fletxes verdes per a mapes adjacents.


METAR-TAF: